sensor_id;sensor_type;location;lat;lon;timestamp;P1;durP1;ratioP1;P2;durP2;ratioP2
4547;SDS011;2286;51.570;7.090;2023-03-01T00:00:53;7.55;;;6.60;;
4547;SDS011;2286;51.570;7.090;2023-03-01T00:03:20;8.02;;;7.10;;
4547;SDS011;2286;51.570;7.090;2023-03-01T00:05:47;7.70;;;6.90;;
4547;SDS011;2286;51.570;7.090;2023-03-01T00:08:15;10.98;;;8.18;;
4547;SDS011;2286;51.570;7.090;2023-03-01T00:10:42;11.68;;;7.15;;
4547;SDS011;2286;51.570;7.090;2023-03-01T00:13:09;8.35;;;7.50;;
4547;SDS011;2286;51.570;7.090;2023-03-01T00:15:37;11.25;;;9.55;;
4547;SDS011;2286;51.570;7.090;2023-03-01T00:18:06;7.93;;;7.03;;
4547;SDS011;2286;51.570;7.090;2023-03-01T00:20:33;8.40;;;7.60;;
4547;SDS011;2286;51.570;7.090;2023-03-01T00:23:01;8.48;;;7.55;;
4547;SDS011;2286;51.570;7.090;2023-03-01T00:25:29;9.38;;;7.75;;
4547;SDS011;2286;51.570;7.090;2023-03-01T00:27:56;9.43;;;8.48;;
4547;SDS011;2286;51.570;7.090;2023-03-01T00:30:23;9.82;;;8.60;;
4547;SDS011;2286;51.570;7.090;2023-03-01T00:32:50;13.85;;;8.63;;
4547;SDS011;2286;51.570;7.090;2023-03-01T00:35:17;11.05;;;9.88;;
4547;SDS011;2286;51.570;7.090;2023-03-01T00:37:44;10.40;;;9.30;;
4547;SDS011;2286;51.570;7.090;2023-03-01T00:40:11;11.60;;;8.43;;
4547;SDS011;2286;51.570;7.090;2023-03-01T00:42:42;9.18;;;8.10;;
4547;SDS011;2286;51.570;7.090;2023-03-01T00:45:09;11.10;;;8.30;;
4547;SDS011;2286;51.570;7.090;2023-03-01T00:47:38;11.13;;;9.25;;
4547;SDS011;2286;51.570;7.090;2023-03-01T00:50:05;8.60;;;7.38;;
4547;SDS011;2286;51.570;7.090;2023-03-01T00:52:33;10.15;;;7.82;;
4547;SDS011;2286;51.570;7.090;2023-03-01T00:55:00;10.55;;;8.98;;
4547;SDS011;2286;51.570;7.090;2023-03-01T00:57:27;11.25;;;8.68;;
4547;SDS011;2286;51.570;7.090;2023-03-01T00:59:55;8.88;;;8.05;;
4547;SDS011;2286;51.570;7.090;2023-03-01T01:02:22;8.98;;;8.18;;
4547;SDS011;2286;51.570;7.090;2023-03-01T01:04:50;9.45;;;8.10;;
4547;SDS011;2286;51.570;7.090;2023-03-01T01:07:17;9.15;;;8.35;;
4547;SDS011;2286;51.570;7.090;2023-03-01T01:09:45;9.35;;;8.45;;
4547;SDS011;2286;51.570;7.090;2023-03-01T01:12:12;9.23;;;8.32;;
4547;SDS011;2286;51.570;7.090;2023-03-01T01:14:39;9.00;;;8.20;;
4547;SDS011;2286;51.570;7.090;2023-03-01T01:17:07;9.20;;;8.30;;
4547;SDS011;2286;51.570;7.090;2023-03-01T01:19:34;10.68;;;9.65;;
4547;SDS011;2286;51.570;7.090;2023-03-01T01:22:01;10.02;;;8.85;;
4547;SDS011;2286;51.570;7.090;2023-03-01T01:24:28;8.88;;;7.97;;
4547;SDS011;2286;51.570;7.090;2023-03-01T01:26:55;9.35;;;8.45;;
4547;SDS011;2286;51.570;7.090;2023-03-01T01:29:22;9.25;;;8.30;;
4547;SDS011;2286;51.570;7.090;2023-03-01T01:31:49;10.10;;;9.10;;
4547;SDS011;2286;51.570;7.090;2023-03-01T01:34:18;9.48;;;8.57;;
4547;SDS011;2286;51.570;7.090;2023-03-01T01:36:47;9.45;;;8.52;;
4547;SDS011;2286;51.570;7.090;2023-03-01T01:39:14;9.65;;;8.77;;
4547;SDS011;2286;51.570;7.090;2023-03-01T01:41:41;12.35;;;9.32;;
4547;SDS011;2286;51.570;7.090;2023-03-01T01:44:10;10.70;;;9.60;;
4547;SDS011;2286;51.570;7.090;2023-03-01T01:46:39;9.88;;;8.85;;
4547;SDS011;2286;51.570;7.090;2023-03-01T01:49:10;9.20;;;8.30;;
4547;SDS011;2286;51.570;7.090;2023-03-01T01:51:45;9.70;;;8.70;;
4547;SDS011;2286;51.570;7.090;2023-03-01T01:54:16;10.35;;;8.88;;
4547;SDS011;2286;51.570;7.090;2023-03-01T01:56:47;9.90;;;8.52;;
4547;SDS011;2286;51.570;7.090;2023-03-01T01:59:16;10.02;;;9.10;;
4547;SDS011;2286;51.570;7.090;2023-03-01T02:01:43;9.73;;;8.73;;
4547;SDS011;2286;51.570;7.090;2023-03-01T02:04:10;11.63;;;9.27;;
4547;SDS011;2286;51.570;7.090;2023-03-01T02:06:39;10.50;;;8.50;;
4547;SDS011;2286;51.570;7.090;2023-03-01T02:09:11;8.77;;;7.75;;
4547;SDS011;2286;51.570;7.090;2023-03-01T02:11:40;10.13;;;8.27;;
4547;SDS011;2286;51.570;7.090;2023-03-01T02:14:09;9.07;;;8.20;;
4547;SDS011;2286;51.570;7.090;2023-03-01T02:16:36;11.45;;;9.48;;
4547;SDS011;2286;51.570;7.090;2023-03-01T02:19:03;10.02;;;8.77;;
4547;SDS011;2286;51.570;7.090;2023-03-01T02:21:35;22.25;;;10.13;;
4547;SDS011;2286;51.570;7.090;2023-03-01T02:24:16;11.02;;;9.77;;
4547;SDS011;2286;51.570;7.090;2023-03-01T02:26:53;12.13;;;10.18;;
4547;SDS011;2286;51.570;7.090;2023-03-01T02:29:23;10.27;;;9.15;;
4547;SDS011;2286;51.570;7.090;2023-03-01T02:31:51;12.52;;;10.30;;
4547;SDS011;2286;51.570;7.090;2023-03-01T02:34:22;9.85;;;8.85;;
4547;SDS011;2286;51.570;7.090;2023-03-01T02:36:52;10.77;;;9.68;;
4547;SDS011;2286;51.570;7.090;2023-03-01T02:39:23;14.85;;;9.45;;
4547;SDS011;2286;51.570;7.090;2023-03-01T02:41:54;11.05;;;9.20;;
4547;SDS011;2286;51.570;7.090;2023-03-01T02:44:23;12.82;;;9.38;;
4547;SDS011;2286;51.570;7.090;2023-03-01T02:46:51;12.95;;;9.88;;
4547;SDS011;2286;51.570;7.090;2023-03-01T02:49:21;12.43;;;11.07;;
4547;SDS011;2286;51.570;7.090;2023-03-01T02:52:01;13.15;;;10.77;;
4547;SDS011;2286;51.570;7.090;2023-03-01T02:54:54;11.27;;;8.98;;
4547;SDS011;2286;51.570;7.090;2023-03-01T02:57:26;11.93;;;10.70;;
4547;SDS011;2286;51.570;7.090;2023-03-01T02:59:56;10.60;;;9.50;;
4547;SDS011;2286;51.570;7.090;2023-03-01T03:02:32;11.32;;;9.27;;
4547;SDS011;2286;51.570;7.090;2023-03-01T03:05:04;11.43;;;10.30;;
4547;SDS011;2286;51.570;7.090;2023-03-01T03:07:35;10.18;;;9.05;;
4547;SDS011;2286;51.570;7.090;2023-03-01T03:10:03;12.43;;;10.57;;
4547;SDS011;2286;51.570;7.090;2023-03-01T03:12:32;11.82;;;10.60;;
4547;SDS011;2286;51.570;7.090;2023-03-01T03:15:01;11.32;;;10.18;;
4547;SDS011;2286;51.570;7.090;2023-03-01T03:17:33;11.35;;;10.15;;
4547;SDS011;2286;51.570;7.090;2023-03-01T03:20:01;12.63;;;10.52;;
4547;SDS011;2286;51.570;7.090;2023-03-01T03:22:29;12.80;;;10.05;;
4547;SDS011;2286;51.570;7.090;2023-03-01T03:24:56;10.57;;;9.57;;
4547;SDS011;2286;51.570;7.090;2023-03-01T03:27:23;11.85;;;9.70;;
4547;SDS011;2286;51.570;7.090;2023-03-01T03:29:50;13.15;;;10.23;;
4547;SDS011;2286;51.570;7.090;2023-03-01T03:32:18;13.27;;;10.15;;
4547;SDS011;2286;51.570;7.090;2023-03-01T03:34:45;11.38;;;10.20;;
4547;SDS011;2286;51.570;7.090;2023-03-01T03:37:13;10.82;;;9.73;;
4547;SDS011;2286;51.570;7.090;2023-03-01T03:39:54;11.50;;;10.30;;
4547;SDS011;2286;51.570;7.090;2023-03-01T03:42:21;11.57;;;10.00;;
4547;SDS011;2286;51.570;7.090;2023-03-01T03:44:48;13.07;;;10.45;;
4547;SDS011;2286;51.570;7.090;2023-03-01T03:47:15;12.80;;;10.40;;
4547;SDS011;2286;51.570;7.090;2023-03-01T03:49:43;11.40;;;10.20;;
4547;SDS011;2286;51.570;7.090;2023-03-01T03:52:10;11.57;;;10.13;;
4547;SDS011;2286;51.570;7.090;2023-03-01T03:54:38;10.73;;;9.63;;
4547;SDS011;2286;51.570;7.090;2023-03-01T03:57:05;11.05;;;9.50;;
4547;SDS011;2286;51.570;7.090;2023-03-01T03:59:33;11.95;;;10.30;;
4547;SDS011;2286;51.570;7.090;2023-03-01T04:02:00;12.63;;;11.25;;
4547;SDS011;2286;51.570;7.090;2023-03-01T04:04:27;11.63;;;10.15;;
4547;SDS011;2286;51.570;7.090;2023-03-01T04:06:55;12.57;;;10.60;;
4547;SDS011;2286;51.570;7.090;2023-03-01T04:09:22;11.80;;;10.25;;
4547;SDS011;2286;51.570;7.090;2023-03-01T04:11:49;12.05;;;10.70;;
4547;SDS011;2286;51.570;7.090;2023-03-01T04:14:16;15.60;;;10.85;;
4547;SDS011;2286;51.570;7.090;2023-03-01T04:16:43;11.95;;;10.75;;
4547;SDS011;2286;51.570;7.090;2023-03-01T04:19:10;14.18;;;11.15;;
4547;SDS011;2286;51.570;7.090;2023-03-01T04:21:37;11.88;;;10.65;;
4547;SDS011;2286;51.570;7.090;2023-03-01T04:24:06;13.40;;;11.65;;
4547;SDS011;2286;51.570;7.090;2023-03-01T04:26:34;12.63;;;11.00;;
4547;SDS011;2286;51.570;7.090;2023-03-01T04:29:01;12.55;;;11.00;;
4547;SDS011;2286;51.570;7.090;2023-03-01T04:31:28;16.02;;;11.55;;
4547;SDS011;2286;51.570;7.090;2023-03-01T04:33:55;15.15;;;12.48;;
4547;SDS011;2286;51.570;7.090;2023-03-01T04:36:23;12.48;;;11.20;;
4547;SDS011;2286;51.570;7.090;2023-03-01T04:38:51;13.40;;;12.00;;
4547;SDS011;2286;51.570;7.090;2023-03-01T04:41:21;13.10;;;11.55;;
4547;SDS011;2286;51.570;7.090;2023-03-01T04:43:50;14.20;;;11.80;;
4547;SDS011;2286;51.570;7.090;2023-03-01T04:46:17;14.90;;;12.13;;
4547;SDS011;2286;51.570;7.090;2023-03-01T04:48:46;12.80;;;11.40;;
4547;SDS011;2286;51.570;7.090;2023-03-01T04:51:13;16.63;;;12.60;;
4547;SDS011;2286;51.570;7.090;2023-03-01T04:53:42;14.55;;;11.90;;
4547;SDS011;2286;51.570;7.090;2023-03-01T04:56:09;13.43;;;11.48;;
4547;SDS011;2286;51.570;7.090;2023-03-01T04:58:38;12.68;;;11.35;;
4547;SDS011;2286;51.570;7.090;2023-03-01T05:01:08;15.00;;;11.93;;
4547;SDS011;2286;51.570;7.090;2023-03-01T05:03:40;15.07;;;12.55;;
4547;SDS011;2286;51.570;7.090;2023-03-01T05:06:08;13.43;;;12.00;;
4547;SDS011;2286;51.570;7.090;2023-03-01T05:08:36;12.40;;;10.98;;
4547;SDS011;2286;51.570;7.090;2023-03-01T05:11:03;13.80;;;11.40;;
4547;SDS011;2286;51.570;7.090;2023-03-01T05:13:34;13.25;;;11.70;;
4547;SDS011;2286;51.570;7.090;2023-03-01T05:16:04;15.10;;;12.68;;
4547;SDS011;2286;51.570;7.090;2023-03-01T05:18:32;14.27;;;11.43;;
4547;SDS011;2286;51.570;7.090;2023-03-01T05:21:02;15.48;;;11.90;;
4547;SDS011;2286;51.570;7.090;2023-03-01T05:23:31;16.15;;;12.80;;
4547;SDS011;2286;51.570;7.090;2023-03-01T05:26:00;15.70;;;12.80;;
4547;SDS011;2286;51.570;7.090;2023-03-01T05:28:29;14.43;;;12.00;;
4547;SDS011;2286;51.570;7.090;2023-03-01T05:30:56;17.27;;;12.65;;
4547;SDS011;2286;51.570;7.090;2023-03-01T05:33:25;13.85;;;11.82;;
4547;SDS011;2286;51.570;7.090;2023-03-01T05:35:53;14.13;;;12.15;;
4547;SDS011;2286;51.570;7.090;2023-03-01T05:38:20;17.52;;;11.98;;
4547;SDS011;2286;51.570;7.090;2023-03-01T05:40:48;17.73;;;12.68;;
4547;SDS011;2286;51.570;7.090;2023-03-01T05:43:16;14.52;;;12.38;;
4547;SDS011;2286;51.570;7.090;2023-03-01T05:45:43;17.15;;;12.90;;
4547;SDS011;2286;51.570;7.090;2023-03-01T05:48:11;17.33;;;12.25;;
4547;SDS011;2286;51.570;7.090;2023-03-01T05:50:40;15.35;;;11.95;;
4547;SDS011;2286;51.570;7.090;2023-03-01T05:53:10;19.45;;;12.88;;
4547;SDS011;2286;51.570;7.090;2023-03-01T05:55:39;16.92;;;12.93;;
4547;SDS011;2286;51.570;7.090;2023-03-01T05:58:09;14.05;;;12.27;;
4547;SDS011;2286;51.570;7.090;2023-03-01T06:00:39;16.70;;;12.63;;
4547;SDS011;2286;51.570;7.090;2023-03-01T06:03:06;13.63;;;11.95;;
4547;SDS011;2286;51.570;7.090;2023-03-01T06:05:36;15.77;;;12.27;;
4547;SDS011;2286;51.570;7.090;2023-03-01T06:08:05;16.17;;;13.15;;
4547;SDS011;2286;51.570;7.090;2023-03-01T06:10:33;22.40;;;13.18;;
4547;SDS011;2286;51.570;7.090;2023-03-01T06:13:00;14.65;;;12.80;;
4547;SDS011;2286;51.570;7.090;2023-03-01T06:15:27;14.98;;;12.60;;
4547;SDS011;2286;51.570;7.090;2023-03-01T06:17:54;15.45;;;12.30;;
4547;SDS011;2286;51.570;7.090;2023-03-01T06:20:23;15.07;;;12.88;;
4547;SDS011;2286;51.570;7.090;2023-03-01T06:22:51;22.08;;;13.85;;
4547;SDS011;2286;51.570;7.090;2023-03-01T06:25:20;15.35;;;12.73;;
4547;SDS011;2286;51.570;7.090;2023-03-01T06:27:48;14.65;;;12.05;;
4547;SDS011;2286;51.570;7.090;2023-03-01T06:30:17;15.82;;;12.45;;
4547;SDS011;2286;51.570;7.090;2023-03-01T06:32:45;15.82;;;13.55;;
4547;SDS011;2286;51.570;7.090;2023-03-01T06:35:13;15.05;;;13.35;;
4547;SDS011;2286;51.570;7.090;2023-03-01T06:37:42;17.48;;;13.05;;
4547;SDS011;2286;51.570;7.090;2023-03-01T06:40:10;14.52;;;12.25;;
4547;SDS011;2286;51.570;7.090;2023-03-01T06:42:40;15.57;;;12.63;;
4547;SDS011;2286;51.570;7.090;2023-03-01T06:45:10;16.85;;;13.65;;
4547;SDS011;2286;51.570;7.090;2023-03-01T06:47:37;14.40;;;12.02;;
4547;SDS011;2286;51.570;7.090;2023-03-01T06:50:04;14.55;;;12.65;;
4547;SDS011;2286;51.570;7.090;2023-03-01T06:52:32;15.70;;;12.98;;
4547;SDS011;2286;51.570;7.090;2023-03-01T06:54:59;16.60;;;14.93;;
4547;SDS011;2286;51.570;7.090;2023-03-01T06:57:26;18.13;;;13.95;;
4547;SDS011;2286;51.570;7.090;2023-03-01T06:59:55;15.15;;;13.25;;
4547;SDS011;2286;51.570;7.090;2023-03-01T07:02:22;14.02;;;12.63;;
4547;SDS011;2286;51.570;7.090;2023-03-01T07:04:49;17.25;;;12.70;;
4547;SDS011;2286;51.570;7.090;2023-03-01T07:07:17;15.95;;;12.85;;
4547;SDS011;2286;51.570;7.090;2023-03-01T07:09:45;15.50;;;13.00;;
4547;SDS011;2286;51.570;7.090;2023-03-01T07:12:12;14.93;;;13.00;;
4547;SDS011;2286;51.570;7.090;2023-03-01T07:14:39;14.82;;;12.43;;
4547;SDS011;2286;51.570;7.090;2023-03-01T07:17:07;19.35;;;13.40;;
4547;SDS011;2286;51.570;7.090;2023-03-01T07:19:34;15.55;;;13.55;;
4547;SDS011;2286;51.570;7.090;2023-03-01T07:22:02;15.27;;;13.68;;
4547;SDS011;2286;51.570;7.090;2023-03-01T07:24:32;15.68;;;13.63;;
4547;SDS011;2286;51.570;7.090;2023-03-01T07:26:59;14.48;;;12.85;;
4547;SDS011;2286;51.570;7.090;2023-03-01T07:29:26;15.57;;;13.93;;
4547;SDS011;2286;51.570;7.090;2023-03-01T07:31:54;14.77;;;13.07;;
4547;SDS011;2286;51.570;7.090;2023-03-01T07:34:22;16.17;;;13.07;;
4547;SDS011;2286;51.570;7.090;2023-03-01T07:36:49;15.20;;;13.20;;
4547;SDS011;2286;51.570;7.090;2023-03-01T07:39:17;15.45;;;12.40;;
4547;SDS011;2286;51.570;7.090;2023-03-01T07:41:44;15.90;;;14.18;;
4547;SDS011;2286;51.570;7.090;2023-03-01T07:44:11;16.38;;;13.95;;
4547;SDS011;2286;51.570;7.090;2023-03-01T07:46:38;16.55;;;13.50;;
4547;SDS011;2286;51.570;7.090;2023-03-01T07:49:05;15.57;;;13.98;;
4547;SDS011;2286;51.570;7.090;2023-03-01T07:51:34;15.82;;;14.20;;
4547;SDS011;2286;51.570;7.090;2023-03-01T07:54:01;17.63;;;14.85;;
4547;SDS011;2286;51.570;7.090;2023-03-01T07:56:28;22.02;;;14.65;;
4547;SDS011;2286;51.570;7.090;2023-03-01T07:58:55;18.05;;;14.00;;
4547;SDS011;2286;51.570;7.090;2023-03-01T08:01:22;16.52;;;14.30;;
4547;SDS011;2286;51.570;7.090;2023-03-01T08:03:49;16.48;;;12.90;;
4547;SDS011;2286;51.570;7.090;2023-03-01T08:06:16;17.45;;;14.63;;
4547;SDS011;2286;51.570;7.090;2023-03-01T08:08:45;16.65;;;13.13;;
4547;SDS011;2286;51.570;7.090;2023-03-01T08:11:13;16.77;;;13.23;;
4547;SDS011;2286;51.570;7.090;2023-03-01T08:13:41;15.23;;;12.40;;
4547;SDS011;2286;51.570;7.090;2023-03-01T08:16:09;15.52;;;12.48;;
4547;SDS011;2286;51.570;7.090;2023-03-01T08:18:38;16.50;;;11.63;;
4547;SDS011;2286;51.570;7.090;2023-03-01T08:21:05;14.95;;;10.55;;
4547;SDS011;2286;51.570;7.090;2023-03-01T08:23:33;16.33;;;11.93;;
4547;SDS011;2286;51.570;7.090;2023-03-01T08:26:06;14.15;;;12.65;;
4547;SDS011;2286;51.570;7.090;2023-03-01T08:28:34;14.45;;;11.50;;
4547;SDS011;2286;51.570;7.090;2023-03-01T08:31:02;14.95;;;12.32;;
4547;SDS011;2286;51.570;7.090;2023-03-01T08:33:29;13.45;;;11.10;;
4547;SDS011;2286;51.570;7.090;2023-03-01T08:36:03;16.27;;;11.93;;
4547;SDS011;2286;51.570;7.090;2023-03-01T08:38:32;14.98;;;12.10;;
4547;SDS011;2286;51.570;7.090;2023-03-01T08:40:59;16.08;;;12.85;;
4547;SDS011;2286;51.570;7.090;2023-03-01T08:43:28;18.92;;;13.75;;
4547;SDS011;2286;51.570;7.090;2023-03-01T08:45:55;15.25;;;13.30;;
4547;SDS011;2286;51.570;7.090;2023-03-01T08:48:22;13.77;;;12.30;;
4547;SDS011;2286;51.570;7.090;2023-03-01T08:50:49;14.00;;;11.98;;
4547;SDS011;2286;51.570;7.090;2023-03-01T08:53:16;15.38;;;13.77;;
4547;SDS011;2286;51.570;7.090;2023-03-01T08:55:43;15.52;;;13.02;;
4547;SDS011;2286;51.570;7.090;2023-03-01T08:58:10;16.45;;;13.75;;
4547;SDS011;2286;51.570;7.090;2023-03-01T09:00:39;16.60;;;13.80;;
4547;SDS011;2286;51.570;7.090;2023-03-01T09:03:06;15.05;;;13.45;;
4547;SDS011;2286;51.570;7.090;2023-03-01T09:05:33;15.02;;;12.90;;
4547;SDS011;2286;51.570;7.090;2023-03-01T09:08:01;15.60;;;12.52;;
4547;SDS011;2286;51.570;7.090;2023-03-01T09:10:29;14.27;;;12.77;;
4547;SDS011;2286;51.570;7.090;2023-03-01T09:12:56;17.55;;;12.75;;
4547;SDS011;2286;51.570;7.090;2023-03-01T09:15:23;14.10;;;10.73;;
4547;SDS011;2286;51.570;7.090;2023-03-01T09:17:51;10.60;;;9.52;;
4547;SDS011;2286;51.570;7.090;2023-03-01T09:20:18;11.70;;;10.57;;
4547;SDS011;2286;51.570;7.090;2023-03-01T09:22:45;10.73;;;8.98;;
4547;SDS011;2286;51.570;7.090;2023-03-01T09:25:12;10.65;;;9.57;;
4547;SDS011;2286;51.570;7.090;2023-03-01T09:27:39;11.25;;;9.40;;
4547;SDS011;2286;51.570;7.090;2023-03-01T09:30:07;11.50;;;9.52;;
4547;SDS011;2286;51.570;7.090;2023-03-01T09:32:35;9.55;;;8.55;;
4547;SDS011;2286;51.570;7.090;2023-03-01T09:35:04;9.52;;;8.63;;
4547;SDS011;2286;51.570;7.090;2023-03-01T09:37:32;10.15;;;9.02;;
4547;SDS011;2286;51.570;7.090;2023-03-01T09:40:00;11.70;;;9.00;;
4547;SDS011;2286;51.570;7.090;2023-03-01T09:42:28;9.15;;;8.25;;
4547;SDS011;2286;51.570;7.090;2023-03-01T09:44:59;11.70;;;9.23;;
4547;SDS011;2286;51.570;7.090;2023-03-01T09:47:30;9.27;;;8.48;;
4547;SDS011;2286;51.570;7.090;2023-03-01T09:50:02;9.60;;;7.55;;
4547;SDS011;2286;51.570;7.090;2023-03-01T09:52:38;7.82;;;7.00;;
4547;SDS011;2286;51.570;7.090;2023-03-01T09:55:09;7.37;;;6.67;;
4547;SDS011;2286;51.570;7.090;2023-03-01T09:57:41;7.10;;;6.50;;
4547;SDS011;2286;51.570;7.090;2023-03-01T10:00:16;9.23;;;7.50;;
4547;SDS011;2286;51.570;7.090;2023-03-01T10:02:51;7.20;;;6.50;;
4547;SDS011;2286;51.570;7.090;2023-03-01T10:05:36;7.23;;;5.77;;
4547;SDS011;2286;51.570;7.090;2023-03-01T10:11:04;7.90;;;6.17;;
4547;SDS011;2286;51.570;7.090;2023-03-01T10:13:45;7.43;;;6.70;;
4547;SDS011;2286;51.570;7.090;2023-03-01T10:16:19;10.43;;;7.00;;
4547;SDS011;2286;51.570;7.090;2023-03-01T10:18:51;8.20;;;6.23;;
4547;SDS011;2286;51.570;7.090;2023-03-01T10:21:25;7.13;;;6.53;;
4547;SDS011;2286;51.570;7.090;2023-03-01T10:24:04;6.40;;;5.80;;
4547;SDS011;2286;51.570;7.090;2023-03-01T10:26:39;6.53;;;5.80;;
4547;SDS011;2286;51.570;7.090;2023-03-01T10:29:15;9.30;;;6.70;;
4547;SDS011;2286;51.570;7.090;2023-03-01T10:31:42;6.40;;;5.80;;
4547;SDS011;2286;51.570;7.090;2023-03-01T10:34:13;7.30;;;6.60;;
4547;SDS011;2286;51.570;7.090;2023-03-01T10:36:44;9.63;;;6.33;;
4547;SDS011;2286;51.570;7.090;2023-03-01T10:39:15;8.93;;;6.90;;
4547;SDS011;2286;51.570;7.090;2023-03-01T10:41:52;6.00;;;5.40;;
4547;SDS011;2286;51.570;7.090;2023-03-01T10:44:39;7.40;;;6.27;;
4547;SDS011;2286;51.570;7.090;2023-03-01T10:47:19;8.20;;;7.17;;
4547;SDS011;2286;51.570;7.090;2023-03-01T10:49:51;6.50;;;5.83;;
4547;SDS011;2286;51.570;7.090;2023-03-01T10:52:22;9.23;;;6.60;;
4547;SDS011;2286;51.570;7.090;2023-03-01T10:54:51;7.20;;;6.20;;
4547;SDS011;2286;51.570;7.090;2023-03-01T10:57:33;6.77;;;6.07;;
4547;SDS011;2286;51.570;7.090;2023-03-01T11:03:01;6.67;;;6.17;;
4547;SDS011;2286;51.570;7.090;2023-03-01T11:05:35;7.70;;;7.00;;
4547;SDS011;2286;51.570;7.090;2023-03-01T11:08:04;8.23;;;7.30;;
4547;SDS011;2286;51.570;7.090;2023-03-01T11:10:32;7.70;;;6.67;;
4547;SDS011;2286;51.570;7.090;2023-03-01T11:13:07;8.13;;;7.00;;
4547;SDS011;2286;51.570;7.090;2023-03-01T11:15:39;5.83;;;5.33;;
4547;SDS011;2286;51.570;7.090;2023-03-01T11:18:15;10.53;;;6.10;;
4547;SDS011;2286;51.570;7.090;2023-03-01T11:20:45;7.90;;;6.57;;
4547;SDS011;2286;51.570;7.090;2023-03-01T11:23:15;7.60;;;5.77;;
4547;SDS011;2286;51.570;7.090;2023-03-01T11:25:44;6.27;;;5.67;;
4547;SDS011;2286;51.570;7.090;2023-03-01T11:28:16;7.33;;;5.87;;
4547;SDS011;2286;51.570;7.090;2023-03-01T11:30:47;11.07;;;5.57;;
4547;SDS011;2286;51.570;7.090;2023-03-01T11:33:19;6.77;;;5.60;;
4547;SDS011;2286;51.570;7.090;2023-03-01T11:35:56;7.20;;;6.50;;
4547;SDS011;2286;51.570;7.090;2023-03-01T11:38:29;6.17;;;5.57;;
4547;SDS011;2286;51.570;7.090;2023-03-01T11:41:01;6.40;;;5.90;;
4547;SDS011;2286;51.570;7.090;2023-03-01T11:43:35;6.30;;;5.80;;
4547;SDS011;2286;51.570;7.090;2023-03-01T11:46:18;6.27;;;5.60;;
4547;SDS011;2286;51.570;7.090;2023-03-01T11:49:02;6.60;;;5.87;;
4547;SDS011;2286;51.570;7.090;2023-03-01T11:51:45;6.90;;;6.20;;
4547;SDS011;2286;51.570;7.090;2023-03-01T11:54:25;6.23;;;5.67;;
4547;SDS011;2286;51.570;7.090;2023-03-01T11:57:01;6.87;;;6.27;;
4547;SDS011;2286;51.570;7.090;2023-03-01T12:05:40;6.70;;;6.10;;
4547;SDS011;2286;51.570;7.090;2023-03-01T12:08:15;6.10;;;5.60;;
4547;SDS011;2286;51.570;7.090;2023-03-01T12:10:52;5.93;;;5.33;;
4547;SDS011;2286;51.570;7.090;2023-03-01T12:13:32;6.57;;;5.87;;
4547;SDS011;2286;51.570;7.090;2023-03-01T12:16:28;6.63;;;6.03;;
4547;SDS011;2286;51.570;7.090;2023-03-01T12:21:46;6.50;;;6.00;;
4547;SDS011;2286;51.570;7.090;2023-03-01T12:24:28;6.23;;;5.73;;
4547;SDS011;2286;51.570;7.090;2023-03-01T12:27:15;6.53;;;5.80;;
4547;SDS011;2286;51.570;7.090;2023-03-01T12:30:06;6.00;;;5.50;;
4547;SDS011;2286;51.570;7.090;2023-03-01T12:32:48;6.33;;;5.83;;
4547;SDS011;2286;51.570;7.090;2023-03-01T12:35:33;12.50;;;6.00;;
4547;SDS011;2286;51.570;7.090;2023-03-01T12:38:20;7.30;;;6.37;;
4547;SDS011;2286;51.570;7.090;2023-03-01T12:41:07;6.53;;;6.00;;
4547;SDS011;2286;51.570;7.090;2023-03-01T12:43:58;6.90;;;6.23;;
4547;SDS011;2286;51.570;7.090;2023-03-01T12:46:36;6.30;;;5.70;;
4547;SDS011;2286;51.570;7.090;2023-03-01T12:49:19;6.60;;;6.10;;
4547;SDS011;2286;51.570;7.090;2023-03-01T12:51:51;6.20;;;5.60;;
4547;SDS011;2286;51.570;7.090;2023-03-01T12:54:26;7.20;;;6.60;;
4547;SDS011;2286;51.570;7.090;2023-03-01T12:56:56;7.07;;;6.43;;
4547;SDS011;2286;51.570;7.090;2023-03-01T12:59:31;5.93;;;5.53;;
4547;SDS011;2286;51.570;7.090;2023-03-01T13:02:05;6.43;;;5.90;;
4547;SDS011;2286;51.570;7.090;2023-03-01T13:04:45;6.93;;;6.30;;
4547;SDS011;2286;51.570;7.090;2023-03-01T13:07:25;7.13;;;6.53;;
4547;SDS011;2286;51.570;7.090;2023-03-01T13:10:00;6.93;;;6.10;;
4547;SDS011;2286;51.570;7.090;2023-03-01T13:12:49;7.17;;;6.57;;
4547;SDS011;2286;51.570;7.090;2023-03-01T13:15:31;6.93;;;6.33;;
4547;SDS011;2286;51.570;7.090;2023-03-01T13:17:59;7.67;;;7.07;;
4547;SDS011;2286;51.570;7.090;2023-03-01T13:20:32;7.17;;;6.53;;
4547;SDS011;2286;51.570;7.090;2023-03-01T13:23:11;7.17;;;6.57;;
4547;SDS011;2286;51.570;7.090;2023-03-01T13:26:06;7.53;;;6.93;;
4547;SDS011;2286;51.570;7.090;2023-03-01T13:28:46;8.07;;;7.23;;
4547;SDS011;2286;51.570;7.090;2023-03-01T13:37:20;6.80;;;6.30;;
4547;SDS011;2286;51.570;7.090;2023-03-01T13:39:50;8.03;;;7.23;;
4547;SDS011;2286;51.570;7.090;2023-03-01T13:42:35;7.80;;;7.20;;
4547;SDS011;2286;51.570;7.090;2023-03-01T13:45:21;8.23;;;7.40;;
4547;SDS011;2286;51.570;7.090;2023-03-01T13:47:55;7.43;;;6.93;;
4547;SDS011;2286;51.570;7.090;2023-03-01T13:50:28;8.77;;;7.70;;
4547;SDS011;2286;51.570;7.090;2023-03-01T13:53:00;8.40;;;7.70;;
4547;SDS011;2286;51.570;7.090;2023-03-01T13:55:37;7.80;;;7.20;;
4547;SDS011;2286;51.570;7.090;2023-03-01T13:58:14;8.53;;;7.40;;
4547;SDS011;2286;51.570;7.090;2023-03-01T14:00:42;8.37;;;7.60;;
4547;SDS011;2286;51.570;7.090;2023-03-01T14:03:11;8.67;;;7.97;;
4547;SDS011;2286;51.570;7.090;2023-03-01T14:05:42;8.90;;;8.00;;
4547;SDS011;2286;51.570;7.090;2023-03-01T14:08:24;9.87;;;8.57;;
4547;SDS011;2286;51.570;7.090;2023-03-01T14:10:54;9.70;;;8.67;;
4547;SDS011;2286;51.570;7.090;2023-03-01T14:13:46;7.90;;;7.30;;
4547;SDS011;2286;51.570;7.090;2023-03-01T14:16:24;9.10;;;8.30;;
4547;SDS011;2286;51.570;7.090;2023-03-01T14:19:05;8.57;;;7.73;;
4547;SDS011;2286;51.570;7.090;2023-03-01T14:21:42;7.83;;;7.23;;
4547;SDS011;2286;51.570;7.090;2023-03-01T14:24:15;7.70;;;7.10;;
4547;SDS011;2286;51.570;7.090;2023-03-01T14:26:44;8.80;;;8.00;;
4547;SDS011;2286;51.570;7.090;2023-03-01T14:29:24;8.63;;;7.93;;
4547;SDS011;2286;51.570;7.090;2023-03-01T14:31:53;8.87;;;7.97;;
4547;SDS011;2286;51.570;7.090;2023-03-01T14:34:20;8.60;;;7.83;;
4547;SDS011;2286;51.570;7.090;2023-03-01T14:36:50;6.80;;;5.93;;
4547;SDS011;2286;51.570;7.090;2023-03-01T14:39:17;7.80;;;7.17;;
4547;SDS011;2286;51.570;7.090;2023-03-01T14:41:46;8.27;;;7.47;;
4547;SDS011;2286;51.570;7.090;2023-03-01T14:44:14;7.87;;;7.07;;
4547;SDS011;2286;51.570;7.090;2023-03-01T14:46:45;8.03;;;7.20;;
4547;SDS011;2286;51.570;7.090;2023-03-01T14:49:14;7.50;;;6.67;;
4547;SDS011;2286;51.570;7.090;2023-03-01T14:51:45;8.13;;;7.37;;
4547;SDS011;2286;51.570;7.090;2023-03-01T14:54:20;7.80;;;6.97;;
4547;SDS011;2286;51.570;7.090;2023-03-01T14:56:50;6.80;;;6.20;;
4547;SDS011;2286;51.570;7.090;2023-03-01T14:59:19;7.47;;;6.87;;
4547;SDS011;2286;51.570;7.090;2023-03-01T15:01:48;6.53;;;6.03;;
4547;SDS011;2286;51.570;7.090;2023-03-01T15:04:16;8.10;;;7.30;;
4547;SDS011;2286;51.570;7.090;2023-03-01T15:07:01;7.30;;;6.57;;
4547;SDS011;2286;51.570;7.090;2023-03-01T15:09:29;8.70;;;6.60;;
4547;SDS011;2286;51.570;7.090;2023-03-01T15:11:59;8.77;;;6.60;;
4547;SDS011;2286;51.570;7.090;2023-03-01T15:14:38;6.80;;;6.30;;
4547;SDS011;2286;51.570;7.090;2023-03-01T15:17:16;7.97;;;7.17;;
4547;SDS011;2286;51.570;7.090;2023-03-01T15:19:50;7.50;;;6.80;;
4547;SDS011;2286;51.570;7.090;2023-03-01T15:22:18;7.47;;;6.87;;
4547;SDS011;2286;51.570;7.090;2023-03-01T15:24:47;7.67;;;6.93;;
4547;SDS011;2286;51.570;7.090;2023-03-01T15:27:15;7.90;;;7.20;;
4547;SDS011;2286;51.570;7.090;2023-03-01T15:29:48;7.90;;;6.67;;
4547;SDS011;2286;51.570;7.090;2023-03-01T15:32:24;8.07;;;7.37;;
4547;SDS011;2286;51.570;7.090;2023-03-01T15:34:55;8.27;;;7.57;;
4547;SDS011;2286;51.570;7.090;2023-03-01T15:37:40;8.00;;;6.90;;
4547;SDS011;2286;51.570;7.090;2023-03-01T15:40:18;7.67;;;6.97;;
4547;SDS011;2286;51.570;7.090;2023-03-01T15:42:49;8.20;;;7.50;;
4547;SDS011;2286;51.570;7.090;2023-03-01T15:45:23;8.53;;;7.73;;